AirNav   Air Wisconsin pilot careers
 
 1264 users online  

KNKX Miramar MCAS (Joe Foss Field) Airport
San Diego, California, USA

GOING TO SAN DIEGO?


FAA INFORMATION EFFECTIVE 19 JULY 2018

Location

FAA Identifier: NKX
Lat/Long: 32-52-06.7043N / 117-08-35.4782W
32-52.111738N / 117-08.591303W
32.8685290 / -117.1431884
(estimated)
Elevation: 477.1 ft. / 145.4 m (surveyed)
Variation: 12E (2015)
From city: 3 miles N of SAN DIEGO, CA
Time zone: UTC -7 (UTC -8 during Standard Time)
Zip code: 92126

Airport Operations

Airport use: Private use. Permission required prior to landing
Activation date: 02/1944
Control tower: yes
ARTCC: LOS ANGELES CENTER
FSS: SAN DIEGO FLIGHT SERVICE STATION
NOTAMs facility: NKX (NOTAM-D service available)
Attendance: MON-THURS 1530-0800Z++, ALL FRI 1630-0200Z++, ALL SAT CLSD, ALL SUN 2200-0200Z++, ALL HOL CLSD
SEE FLIP AP/1 SUPPLEMENTARY ARPT INFO.
Segmented circle: no
Lights: ACTIVATE-ALSF-1, HIRL, CL AND PAPI RWY 06L-24R-298.925 OR 135.2
Beacon: white-white-green (lighted military airport)
Operates sunset to sunrise.

Airport Communications

ATIS: 352.0
MIRAMAR GROUND: 128.625 307.325 [1530-0800Z++ MON-THU; 1530-0200Z++ FRI; CLSD SAT; 2200-0200Z++SUN. FLD CLSD NATL HOL AND NATL HOL WKENDS.]
MIRAMAR TOWER: 135.2 298.925 340.2 [1530-0800Z++ MON-THU; 1530-0200Z++ FRI; CLSD SAT; 2200-0200Z++SUN. FLD CLSD NATL HOL AND NATL HOL WKENDS.]
SOCAL APPROACH: 132.2
SOCAL DEPARTURE: 119.6 WEST 132.2 EAST
CLEARANCE DELIVERY: 125.975 254.325
PMSV METRO: 342.4
PTD: 335.625
RADAR: 133.625 266.8X 270.35 307.9X 328.4X 348.75 350.275 373.575 379.125 380.3X
WX ASOS at MYF (3 nm S): 126.9 (858-576-4337)
WX ASOS at SAN (8 nm S): PHONE 619-296-8934
WX AWOS-3P at SEE (9 nm E): 125.45 (619-449-1228)
WX ASOS at RNM (15 nm NE): 132.025 (760-789-0736)
WX ASOS at CRQ (17 nm NW): PHONE 760-930-0864
WX ASOS at NRS (18 nm S): PHONE 619-437-9890
WX ASOS at SDM (20 nm SE): 132.35 (619-661-8297)
  • FOR CLNC DEL WHEN ATCT CLSD CALL SOCAL APCH (800) 448-3724.
  • RADAR - SEE TERMINAL FLIP FOR RADAR MINIMA.

Nearby radio navigation aids

VOR radial/distance  VOR name  Freq  Var
MZBr024/6.6MISSION BAY VORTAC117.8015E
PGYr318/17.6POGGI VORTAC109.8014E
TIJr320/21.9TIJUANA VOR/DME116.5014E
OCNr133/26.3OCEANSIDE VORTAC115.3015E
JLIr225/32.4JULIAN VORTAC114.0015E

Airport Services

Airframe service: NONE
Powerplant service: NONE
Bottled oxygen: NONE
Bulk oxygen: NONE

Runway Information

Runway 6L/24R

Dimensions: 12000 x 200 ft. / 3658 x 61 m
Surface: concrete
Weight bearing capacity: 
PCN 66 /R/B/W/T
Runway edge lights: high intensity
RUNWAY 6L  RUNWAY 24R
Latitude: 32-51.873985N32-52.372448N
Longitude: 117-09.890945W117-07.621707W
Elevation: 425.7 ft.474.9 ft.
Traffic pattern: leftleft
Runway heading: 063 magnetic, 075 true243 magnetic, 255 true
Visual slope indicator: 4-light PAPI on left (3.00 degrees glide path)4-light PAPI on left (3.00 degrees glide path)
Approach lights: OLSALSF1: standard 2,400 foot high intensity approach lighting system with centerline sequenced flashers (category I)
SF, OLS
Centerline lights: yesyes
Touchdown point: yes, no lightsyes, no lights
Instrument approach: LOC/GS

Runway 6R/24L

Dimensions: 8001 x 200 ft. / 2439 x 61 m
Surface: PEM
Weight bearing capacity: 
PCN 62 /R/B/W/T
Runway edge lights: high intensity
RUNWAY 6R  RUNWAY 24L
Latitude: 32-51.928375N32-52.260677N
Longitude: 117-09.100330W117-07.587280W
Elevation: 430.2 ft.477.1 ft.
Traffic pattern: leftleft
Runway heading: 063 magnetic, 075 true243 magnetic, 255 true
Visual slope indicator: 4-light PAPI on left (3.00 degrees glide path)4-light PAPI on left (3.00 degrees glide path)
Approach lights: OLSOLS
Touchdown point: yes, no lightsyes, no lights

Airport Ownership and Management from official FAA records

Ownership: U.S. Navy
Owner: US NAVY
OCEANOGRAPHIC OFC - CODE 3142
WASHINGTON, DC 20373
Manager: COMMANDING OFFICER
MARINE CORPS AIR STATION MIRAMAR
SAN DIEGO, CA 92145

Additional Remarks

E60-24R HOOK E28(B) (2300')
E60-06R HOOK E28(B) (1052')
E60-06L HOOK E28(B) (2490')
E60-24L HOOK E28(B) (2301')
CAUTION: WATER ON THE RUBBER BUILD-UP AREAS OF THE RWY MAY PRODUCE POOR TRACTION AND/OR BA AND STANDING WATER ON RWY MAY PRODUCE HYDROPLANING COND.
NS ABTMT: STRICTLY ENFORCED, MANDATORY PRO AND CRS RULES. ALL TRAN ACFT MUST REVIEW AND SIGN NOISE ABATEMENT FORM WITH FLT PLANNING.
CAUTION: HIGH MID-AIR POTENTIAL, EXER EXTREME VIGILANCE.
CAUTION: ALL ACFT ARR/DEP VFR VIA CORRIDOR RULES TO/FR COASTLINE ARE ADVS TO EXER EXTREME CAUTION TO AVOID HANG GLIDER ACT NEAR TORRY PINES GOLF CRS, NKX R-280/5 DME.
CAUTION: EXTSV GEN AVIATION TFC ALL ALTS, ALL DRCT NEAR AFLD. HIGH VOLUME OF CIV VFR TFC ALONG THE COAST W OF AFLD.
MISC: ORDINANCE, LIVE OR INERT, NOT PERMS TO REMAIN ON RON TRAN ACFT.
SERVICE-LGT: PAPI RRP NOT COINCIDENTAL WITH PAR RY 24L & RY 24R. PAPI UNITS FOR RY 06R/L ARE OPTIMIZED FOR HGT GROUP 2 TYPE ACFT.
A-GEAR: SHORT FLD A-GEAR RWY 24R NML DE-RIGGED.
FUEL: J5
FLUID: SP LHOX LOX.
OIL: O-148-156.
TRAN ALERT: NO AMC FLEET SVC AVBL. ALCE TEAM RQR FOR ALL AMC FLT. LTD TRAN SVC, NO TIE-DOWN, OIL/LABORATORY ANALYSIS OR TRAN MAINT SVC AVBL.
JASU: (A/M47A-4) (NC-10A1) (NC-10C)
TRAN ALERT: NO SHUTTLE SVC AVBL. ALL VIP ACFT CTC AIRFIELD OPS ON PTD 15 MIN PRIOR TO ARR.
RSTD (1 OF 3): PPR FOR ALL TRAN ACFT AND TRANSCOM/JOSAC/NALO ARE REQUIRED TO CONTACT VAL DSN 267-4284, C858 577-4284 (PPR RSTD TO 30 MIN BEFORE/AFTER APPROVED TIME, PPR NOT VALID OUTSIDE OF THIS WINDOW AND MUST BE RE-COORED TO ARR).
RSTD (2 OF 3): FOR STAGING (LCL TRNG FLT) OR HIGH VISIBILITY EVENTS (VIP M7 AND ABOVE, MEDEVAC W/BATTLE PATIENTS, OIF/OEF HOMECOMING, HR/ANGEL FLIGHTS ETC.) ARE REQUIRED TO NOTIFY AIROPS 1HR PRIOR TO ARRIVAL DUE TO 3DMAW CG AND STATION CO COORDINATION.
RSTD (3 OF 3): PLEASE CONTACT THE ODO AT DSN 267-4277/4284, C858-577-4277/4284.
TFC PAT: REDUCED RWY SEPARATION STD IN EFF USN/USMC ACFT. OPR ON PARL RWY 700' APART. MULTI PRACTICE APCH RY 06L/R NOT AUTH. RADAR VECTORS TO FINAL APCH EXP STEEP DESCENT.
AIRFIELD OPERATING HOURS ARE SUBJECT TO CHANGE. PILOTS FILING MCAS MIRAMAR AS AN ALTERNATE OR EMERGENCY DIVERT ARE ADVISED TO CALL AIRFIELD OPERATIONS TO VERIFY OPERATING HOURS.
CTAF AND CLOSED FIELD OPERATIONS (CFO) ARE NOT AUTHORIZED FOR NON-TENANT AIRCRAFT.

Instrument Procedures

NOTE: All procedures below are presented as PDF files. If you need a reader for these files, you should download the free Adobe Reader.

NOT FOR NAVIGATION. Please procure official charts for flight.
FAA instrument procedures published for use from 19 July 2018 at 0901Z to 16 August 2018 at 0900Z.

 
IAPs - Instrument Approach Procedures
ILS OR LOC/DME RWY 24R   download (142KB)
RNAV (GPS) RWY 24L   download (170KB)
RNAV (GPS) RWY 24R   download (164KB)
HI-TACAN RWY 24R   download (152KB)
TACAN RWY 24R   download (160KB)
Radar Approach Procedures available   download (74KB)
 
Departure Procedures
LAKEE TWO   2 pages: [1] [2] (159KB)
REDIN TWO   download (68KB)
SWOLF SEVEN   2 pages: [1] [2] (122KB)
TINNY TWO   2 pages: [1] [2] (109KB)
VITKO TWO   2 pages: [1] [2] (185KB)
NOTE: Special Take-Off Minimums/Departure Procedures apply   download (189KB)

Other nearby airports with instrument procedures:

KMYF - Montgomery-Gibbs Executive Airport (3 nm S)
KSAN - San Diego International Airport (8 nm S)
KSEE - Gillespie Field Airport (9 nm E)
KNZY - North Island Naval Air Station (Halsey Field) (11 nm S)
KRNM - Ramona Airport (15 nm NE)
KCRQ - Mc Clellan-Palomar Airport (17 nm NW)
KNRS - Imperial Beach Naval Outlying Field (Ream Field) (18 nm S)
KSDM - Brown Field Municipal Airport (20 nm SE)
 
Loc | Ops | Rwys | IFR | FBO | Links
Com | Nav | Svcs | Stats | Notes


 
Area around KNKX (Miramar MCAS (Joe Foss Field) Airport)
 
Road maps at: MapQuest Bing Google
 
Aerial photo
WARNING: Photo may not be current or correct
Aerial photo of KNKX (Miramar MCAS (Joe Foss Field) Airport)
Photo courtesy of AirNav, LLC
Photo taken 11-May-2013
looking northeast from 7,000 ft.

Do you have a better or more recent aerial photo of Miramar MCAS (Joe Foss Field) Airport that you would like to share? If so, please send us your photo.

 
Sectional chart

 
Airport diagram
Diagram of KNKX (Miramar MCAS (Joe Foss Field) Airport)
Download PDF
of official airport diagram from the FAA

 
Airport distance calculator
Flying to Miramar MCAS (Joe Foss Field) Airport? Find the distance to fly.

From to KNKX

Sunrise and sunset
Times for 20-Jul-2018
 Local
(UTC-7)
 Zulu
(UTC)
Morning civil twilight05:2812:28
Sunrise05:5512:55
Sunset19:5502:55
Evening civil twilight20:2203:22

Current date and time
Zulu (UTC)  20-Jul-2018 13:30:14
Local (UTC-7)  20-Jul-2018 06:30:14
 
METAR
KNKX 201255Z 23003KT 10SM FEW015 20/16 A2994 RMK AO2 SLP130 T02000161
KMYF 
3nm S 
201253Z 00000KT 10SM SCT009 20/17 A2994 RMK AO2 SLP134 T02000172
KSAN 
8nm S 
201251Z 00000KT 10SM BKN012 BKN250 22/18 A2995 RMK AO2 SLP141 T02170178
KSEE 
9nm E 
201315Z AUTO 00000KT 10SM CLR 20/17 A2993 RMK AO2
KNZY 
11nm S 
201152Z 28003KT 10SM BKN013 21/18 A2992 RMK AO2 SLP131 T02060178 10206 20194 57002 $
KRNM 
15nm NE 
201253Z AUTO 00000KT 10SM CLR 18/15 A2995 RMK AO2 SLP127 T01830150
KCRQ 
17nm NW 
201311Z AUTO 00000KT 10SM SCT012 19/18 A2993 RMK AO2 T01890183
KNRS 
18nm S 
201256Z AUTO 23003KT 10SM OVC011 21/17 A2993 RMK AO2 SLP136 T02060172
KSDM 
19nm SE 
201253Z AUTO 00000KT 10SM OVC007 19/18 A2994 RMK AO2 SLP132 T01940178
TAF
KNKX 2009/2109 VRB05KT 9999 FEW015 QNH2992INS TEMPO 2009/2015 BKN015 FM201530 26009KT 9999 SCT020 QNH2991INS T19/2012Z T27/2021Z
KSAN 
8nm S 
201133Z 2012/2118 30003KT P6SM BKN011 FM201600 28006KT P6SM SCT015 FM201900 28010KT P6SM SKC FM210200 VRB04KT P6SM SCT015 FM210800 VRB04KT P6SM BKN015 FM211600 30005KT P6SM SCT015
KNZY 
11nm S 
2007/2107 VRB06KT 9999 FEW015 SCT100 SCT250 QNH2985INS TEMPO 2009/2015 8000 BR OVC011 T19/2012Z T24/2023Z FS30024
KCRQ 
17nm NW 
201133Z 2012/2112 VRB04KT P6SM FEW009 TEMPO 2012/2016 BKN009 FM201600 VRB04KT P6SM SCT010 FM202000 25008KT P6SM SKC FM210000 VRB04KT P6SM SCT011
NOTAMs
Click for the latest NOTAMs
NOTAMs are issued by the DoD/FAA and will open in a separate window not controlled by AirNav.

 

 
 

Would you like to see your business listed on this page?

 If your business provides an interesting product or service to pilots, flight crews, aircraft, or users of the Miramar MCAS (Joe Foss Field) Airport, you should consider listing it here.  To start the listing process, click on the button below
 
Add a business
 

Other Pages about Miramar MCAS (Joe Foss Field) Airport

www.miramar.usmc.mil
 
Update a link
 
Copyright © AirNav, LLC. All rights reserved. Privacy Policy  Contact